Time;durP1;ratioP1;P1;durP2;ratioP2;P2;SDS_P1;SDS_P2;PMS_P1;PMS_P2;Temp;Humidity;BMP_temperature;BMP_pressure;BME280_temperature;BME280_humidity;BME280_pressure;Samples;Min_cycle;Max_cycle;Signal;HPM_P1;HPM_P2
2022/12/13 00:00:58;;;;;;;0.50;0.50;;;;;;;5.75;100.00;98701.72;5110678;28;20251;-65
2022/12/13 00:03:25;;;;;;;0.50;0.50;;;;;;;5.70;100.00;98715.41;5111096;28;20222;-65
2022/12/13 00:05:53;;;;;;;0.60;0.60;;;;;;;5.66;100.00;98708.72;5110715;28;20218;-64
2022/12/13 00:08:21;;;;;;;0.40;0.40;;;;;;;5.65;100.00;98727.41;5109557;28;20190;-65
2022/12/13 00:10:48;;;;;;;0.50;0.50;;;;;;;5.58;100.00;98716.53;5110874;28;20646;-65
2022/12/13 00:13:15;;;;;;;0.67;0.67;;;;;;;5.62;100.00;98724.94;5110965;28;20191;-65
2022/12/13 00:15:42;;;;;;;0.60;0.60;;;;;;;5.56;100.00;98719.94;5110835;28;20190;-65
2022/12/13 00:18:08;;;;;;;0.53;0.53;;;;;;;5.58;100.00;98723.31;5109473;28;20217;-64
2022/12/13 00:20:40;;;;;;;0.83;0.83;;;;;;;5.55;100.00;98720.84;5109361;28;20202;-64
2022/12/13 00:23:06;;;;;;;0.60;0.60;;;;;;;5.38;100.00;98717.78;5110721;28;20223;-65
2022/12/13 00:25:35;;;;;;;0.50;0.50;;;;;;;5.42;100.00;98740.59;5110592;28;20666;-65
2022/12/13 00:28:02;;;;;;;0.50;0.50;;;;;;;5.41;100.00;98743.13;5110840;28;20194;-64
2022/12/13 00:30:31;;;;;;;0.50;0.50;;;;;;;5.34;100.00;98750.03;5110088;28;20206;-65
2022/12/13 00:32:58;;;;;;;0.50;0.50;;;;;;;5.38;100.00;98755.91;5110277;28;20245;-64
2022/12/13 00:35:25;;;;;;;0.53;0.53;;;;;;;5.34;100.00;98752.59;5110658;28;20202;-65
2022/12/13 00:37:51;;;;;;;0.60;0.60;;;;;;;5.32;100.00;98758.56;5110439;28;20202;-64
2022/12/13 00:40:19;;;;;;;0.60;0.60;;;;;;;5.18;100.00;98741.88;5109349;28;20230;-65
2022/12/13 00:42:48;;;;;;;0.50;0.50;;;;;;;5.20;100.00;98763.00;5111045;28;20224;-64
2022/12/13 00:45:15;;;;;;;0.70;0.70;;;;;;;5.23;100.00;98765.50;5114563;28;20281;-65
2022/12/13 00:47:42;;;;;;;0.60;0.60;;;;;;;5.14;100.00;98764.81;5113644;28;20210;-65
2022/12/13 00:50:09;;;;;;;0.70;0.70;;;;;;;5.11;100.00;98765.72;5114233;28;20194;-65
2022/12/13 00:52:36;;;;;;;0.70;0.70;;;;;;;5.15;100.00;98777.50;5113738;28;20584;-65
2022/12/13 00:55:02;;;;;;;0.73;0.73;;;;;;;5.12;100.00;98782.66;5114337;28;20222;-65
2022/12/13 00:57:29;;;;;;;0.60;0.60;;;;;;;5.08;100.00;98778.50;5113996;27;20195;-65
2022/12/13 00:59:58;;;;;;;0.60;0.60;;;;;;;5.06;100.00;98772.59;5113955;28;20202;-64
2022/12/13 01:02:25;;;;;;;0.67;0.67;;;;;;;5.01;100.00;98776.91;5113911;28;20285;-65
2022/12/13 01:04:53;;;;;;;0.60;0.60;;;;;;;4.99;100.00;98776.13;5113239;28;20678;-64
2022/12/13 01:07:20;;;;;;;0.50;0.50;;;;;;;4.93;100.00;98781.31;5113846;28;20585;-65
2022/12/13 01:09:47;;;;;;;0.53;0.53;;;;;;;4.92;100.00;98784.69;5113212;28;20202;-65
2022/12/13 01:12:14;;;;;;;0.63;0.63;;;;;;;4.87;100.00;98773.81;5114248;28;20202;-65
2022/12/13 01:14:41;;;;;;;0.60;0.60;;;;;;;4.83;100.00;98779.78;5113765;28;20619;-64
2022/12/13 01:17:09;;;;;;;0.60;0.60;;;;;;;4.77;100.00;98779.91;5112843;28;20198;-65
2022/12/13 01:19:36;;;;;;;0.60;0.60;;;;;;;4.75;100.00;98782.44;5113678;28;20202;-64
2022/12/13 01:22:06;;;;;;;0.60;0.60;;;;;;;4.49;100.00;98743.16;5113691;28;20202;-64
2022/12/13 01:24:33;;;;;;;0.63;0.63;;;;;;;4.68;100.00;98785.13;5113528;28;20236;-65
2022/12/13 01:27:00;;;;;;;0.60;0.60;;;;;;;4.64;100.00;98789.41;5113621;28;20191;-64
2022/12/13 01:29:27;;;;;;;0.57;0.57;;;;;;;4.63;100.00;98797.03;5112323;28;20251;-65
2022/12/13 01:31:54;;;;;;;0.83;0.83;;;;;;;4.57;100.00;98792.06;5113695;28;20199;-65
2022/12/13 01:34:23;;;;;;;0.80;0.80;;;;;;;4.52;100.00;98779.47;5113550;27;20252;-65
2022/12/13 01:36:50;;;;;;;0.93;0.93;;;;;;;4.57;100.00;98808.13;5113436;27;20268;-64
2022/12/13 01:39:19;;;;;;;0.60;0.60;;;;;;;4.57;100.00;98807.28;5112669;28;20219;-64
2022/12/13 01:41:49;;;;;;;0.53;0.53;;;;;;;4.55;100.00;98811.56;5112341;28;20732;-65
2022/12/13 01:44:53;;;;;;;0.60;0.60;;;;;;;4.64;100.00;98808.88;5113324;27;20221;-65
2022/12/13 01:47:26;;;;;;;0.60;0.60;;;;;;;4.72;100.00;98807.88;5111647;28;20205;-65
2022/12/13 01:49:58;;;;;;;0.53;0.53;;;;;;;4.72;100.00;98814.66;5112936;28;20216;-65
2022/12/13 01:52:26;;;;;;;0.57;0.57;;;;;;;4.71;100.00;98807.94;5111128;28;20674;-64
2022/12/13 01:54:56;;;;;;;0.50;0.50;;;;;;;4.58;100.00;98793.75;5112562;28;20560;-65
2022/12/13 01:57:24;;;;;;;0.70;0.70;;;;;;;4.56;100.00;98805.63;5111573;28;20195;-64
2022/12/13 01:59:51;;;;;;;0.50;0.50;;;;;;;4.42;100.00;98794.84;5111756;28;20191;-65
2022/12/13 02:02:18;;;;;;;0.80;0.80;;;;;;;4.52;100.00;98809.94;5112985;28;20661;-65
2022/12/13 02:04:52;;;;;;;0.70;0.70;;;;;;;4.52;100.00;98804.00;5110189;28;20214;-64
2022/12/13 02:07:27;;;;;;;0.50;0.50;;;;;;;4.46;100.00;98814.25;5112677;28;20234;-64
2022/12/13 02:09:57;;;;;;;0.50;0.50;;;;;;;4.44;100.00;98808.34;5112816;28;20195;-65
2022/12/13 02:12:26;;;;;;;0.53;0.53;;;;;;;4.41;100.00;98821.09;5112699;28;20581;-64
2022/12/13 02:14:53;;;;;;;0.50;0.50;;;;;;;4.38;100.00;98816.91;5112823;28;20197;-64
2022/12/13 02:17:33;;;;;;;0.60;0.60;;;;;;;4.34;100.00;98814.41;5111429;27;20190;-64
2022/12/13 02:20:44;;;;;;;0.80;0.80;;;;;;;4.25;100.00;98820.47;5112527;28;20658;-64
2022/12/13 02:23:46;;;;;;;0.60;0.60;;;;;;;4.22;100.00;98831.50;5112584;28;20750;-64
2022/12/13 02:26:37;;;;;;;2.23;1.13;;;;;;;4.27;100.00;98833.13;5109108;28;20198;-64
2022/12/13 02:29:25;;;;;;;0.57;0.57;;;;;;;4.27;100.00;98838.19;5111906;28;20191;-64
2022/12/13 02:32:02;;;;;;;0.63;0.63;;;;;;;4.24;100.00;98839.06;5111010;28;20195;-64
2022/12/13 02:34:37;;;;;;;0.77;0.77;;;;;;;4.30;100.00;98848.31;5112150;28;20632;-65
2022/12/13 02:37:08;;;;;;;0.67;0.67;;;;;;;4.29;100.00;98851.72;5109689;28;20680;-64
2022/12/13 02:39:39;;;;;;;0.70;0.70;;;;;;;4.33;100.00;98853.34;5110876;28;20222;-64
2022/12/13 02:42:11;;;;;;;0.60;0.60;;;;;;;4.31;100.00;98860.13;5111219;28;20256;-64
2022/12/13 02:44:43;;;;;;;0.73;0.73;;;;;;;4.25;100.00;98848.38;5110602;28;20652;-65
2022/12/13 02:47:17;;;;;;;0.70;0.70;;;;;;;4.07;100.00;98831.69;5108314;28;20612;-64
2022/12/13 02:49:48;;;;;;;0.77;0.77;;;;;;;4.17;100.00;98838.31;5110987;28;20194;-64
2022/12/13 02:52:19;;;;;;;0.67;0.67;;;;;;;4.15;100.00;98841.75;5112135;28;20201;-64
2022/12/13 02:54:47;;;;;;;0.73;0.73;;;;;;;4.12;100.00;98837.56;5111948;28;20244;-64
2022/12/13 02:57:28;;;;;;;0.60;0.60;;;;;;;4.12;100.00;98840.09;5107225;28;20202;-64
2022/12/13 02:59:58;;;;;;;0.70;0.70;;;;;;;4.01;100.00;98820.78;5112040;28;20190;-64
2022/12/13 03:02:37;;;;;;;0.60;0.60;;;;;;;4.05;100.00;98843.56;5109834;28;20202;-64
2022/12/13 03:08:16;;;;;;;0.70;0.70;;;;;;;4.00;100.00;98854.63;5110937;28;20201;-64
2022/12/13 03:10:51;;;;;;;0.60;0.60;;;;;;;4.04;100.00;98852.03;5110433;28;20203;-64
2022/12/13 03:13:36;;;;;;;0.70;0.70;;;;;;;3.96;100.00;98858.91;5110362;28;20195;-65
2022/12/13 03:16:10;;;;;;;0.70;0.70;;;;;;;3.99;100.00;98863.94;5111465;28;20199;-64
2022/12/13 03:18:39;;;;;;;0.70;0.70;;;;;;;3.93;100.00;98858.09;5111266;28;20194;-64
2022/12/13 03:21:09;;;;;;;0.60;0.60;;;;;;;3.87;100.00;98859.03;5111405;28;20608;-64
2022/12/13 03:23:37;;;;;;;0.70;0.70;;;;;;;3.80;100.00;98869.25;5111362;28;20214;-64
2022/12/13 03:26:07;;;;;;;0.60;0.60;;;;;;;3.80;100.00;98872.63;5107426;28;20256;-64
2022/12/13 03:28:35;;;;;;;0.60;0.60;;;;;;;3.82;100.00;98865.81;5109191;28;20195;-64
2022/12/13 03:31:01;;;;;;;0.60;0.60;;;;;;;3.79;100.00;98876.00;5111212;28;20194;-64
2022/12/13 03:33:28;;;;;;;0.50;0.50;;;;;;;3.74;100.00;98856.63;5111342;28;20650;-64
2022/12/13 03:35:57;;;;;;;0.60;0.60;;;;;;;3.84;100.00;98876.81;5108182;28;20195;-64
2022/12/13 03:38:25;;;;;;;0.60;0.60;;;;;;;3.79;100.00;98870.94;5110904;28;20688;-64
2022/12/13 03:40:55;;;;;;;0.63;0.63;;;;;;;3.86;100.00;98867.47;5110562;28;20689;-64
2022/12/13 03:43:22;;;;;;;0.60;0.60;;;;;;;3.91;100.00;98870.78;5111025;28;20197;-64
2022/12/13 03:45:48;;;;;;;0.60;0.60;;;;;;;3.94;100.00;98860.59;5111562;28;20651;-65
2022/12/13 03:48:15;;;;;;;0.60;0.60;;;;;;;3.96;100.00;98860.59;5110340;28;20217;-64
2022/12/13 03:50:42;;;;;;;0.60;0.60;;;;;;;3.92;100.00;98857.25;5111454;28;20191;-64
2022/12/13 03:53:10;;;;;;;0.67;0.67;;;;;;;3.92;100.00;98857.25;5111087;28;20311;-64
2022/12/13 03:55:37;;;;;;;0.63;0.63;;;;;;;3.91;100.00;98845.44;5108949;28;20650;-64
2022/12/13 03:58:04;;;;;;;0.60;0.60;;;;;;;3.92;100.00;98852.19;5110734;28;20195;-64
2022/12/13 04:00:30;;;;;;;0.60;0.60;;;;;;;3.90;100.00;98856.44;5109804;28;20199;-64
2022/12/13 04:02:57;;;;;;;0.60;0.60;;;;;;;3.90;100.00;98853.91;5111176;28;20619;-64
2022/12/13 04:05:24;;;;;;;0.70;0.70;;;;;;;3.88;100.00;98852.25;5111330;28;20218;-64
2022/12/13 04:07:51;;;;;;;0.60;0.60;;;;;;;3.85;100.00;98842.97;5111123;28;20199;-64
2022/12/13 04:10:19;;;;;;;0.73;0.73;;;;;;;3.83;100.00;98849.75;5110275;28;20207;-64
2022/12/13 04:15:36;;;;;;;0.60;0.60;;;;;;;3.72;100.00;98838.09;5095105;28;20677;-64
2022/12/13 04:18:02;;;;;;;0.63;0.63;;;;;;;3.82;100.00;98854.84;5112365;28;20686;-64
2022/12/13 04:20:29;;;;;;;0.90;0.90;;;;;;;3.79;100.00;98854.88;5114885;28;20202;-64
2022/12/13 04:22:56;;;;;;;0.70;0.70;;;;;;;3.70;100.00;98851.59;5114915;28;20202;-64
2022/12/13 04:25:24;;;;;;;0.67;0.67;;;;;;;3.82;100.00;98864.97;5111683;27;20218;-64
2022/12/13 04:27:51;;;;;;;23.33;1.87;;;;;;;3.72;100.00;98854.09;5114162;28;20195;-64
2022/12/13 04:30:18;;;;;;;0.70;0.70;;;;;;;3.82;100.00;98875.97;5115085;28;20199;-64
2022/12/13 04:32:44;;;;;;;0.60;0.60;;;;;;;3.84;100.00;98878.50;5114861;28;20558;-64
2022/12/13 04:35:11;;;;;;;0.77;0.77;;;;;;;3.80;100.00;98882.75;5114904;28;20658;-64
2022/12/13 04:37:38;;;;;;;0.50;0.50;;;;;;;3.78;100.00;98897.13;5113834;28;20678;-65
2022/12/13 04:40:06;;;;;;;0.70;0.70;;;;;;;3.76;100.00;98875.19;5114413;28;20223;-64
2022/12/13 04:42:34;;;;;;;0.70;0.70;;;;;;;3.85;100.00;98895.38;5114693;28;20199;-64
2022/12/13 04:45:01;;;;;;;0.77;0.77;;;;;;;3.80;100.00;98895.44;5114368;28;20228;-64
2022/12/13 04:47:28;;;;;;;0.90;0.90;;;;;;;3.80;100.00;98897.97;5113582;28;20252;-64
2022/12/13 04:49:54;;;;;;;0.70;0.70;;;;;;;3.79;100.00;98903.88;5114181;28;20282;-64
2022/12/13 04:52:21;;;;;;;0.60;0.60;;;;;;;3.78;100.00;98898.84;5114476;28;20198;-64
2022/12/13 04:54:48;;;;;;;0.70;0.70;;;;;;;3.82;100.00;98911.47;5114417;28;20194;-64
2022/12/13 04:57:15;;;;;;;0.50;0.50;;;;;;;3.79;100.00;98908.97;5113410;28;20198;-64
2022/12/13 04:59:45;;;;;;;0.50;0.50;;;;;;;3.76;100.00;98909.00;5112992;28;20199;-64
2022/12/13 05:02:12;;;;;;;0.67;0.67;;;;;;;3.80;100.00;98925.84;5113664;28;20688;-64
2022/12/13 05:04:39;;;;;;;0.63;0.63;;;;;;;3.79;100.00;98918.25;5110815;28;20226;-64
2022/12/13 05:07:06;;;;;;;0.50;0.50;;;;;;;3.85;100.00;98926.63;5114038;28;20264;-64
2022/12/13 05:09:33;;;;;;;0.50;0.50;;;;;;;3.84;100.00;98939.34;5113837;28;20208;-64
2022/12/13 05:12:00;;;;;;;0.70;0.70;;;;;;;3.85;100.00;98939.31;5113062;28;20211;-64
2022/12/13 05:14:27;;;;;;;0.57;0.57;;;;;;;3.84;100.00;98935.13;5113576;28;20199;-64
2022/12/13 05:16:55;;;;;;;0.50;0.50;;;;;;;3.83;100.00;98942.72;5113784;28;20202;-64
2022/12/13 05:19:21;;;;;;;0.50;0.50;;;;;;;3.84;100.00;98952.88;5113825;28;20658;-64
2022/12/13 05:21:49;;;;;;;0.40;0.40;;;;;;;3.79;100.00;98941.91;5113997;28;20619;-64
2022/12/13 05:24:16;;;;;;;0.60;0.60;;;;;;;3.84;100.00;98960.47;5112982;28;20218;-64
2022/12/13 05:26:42;;;;;;;0.57;0.57;;;;;;;3.80;100.00;98958.81;5113119;28;20203;-64
2022/12/13 05:29:09;;;;;;;0.50;0.50;;;;;;;3.77;100.00;98966.44;5112517;28;20252;-63
2022/12/13 05:31:36;;;;;;;0.93;0.93;;;;;;;3.78;100.00;98963.03;5113433;28;20231;-64
2022/12/13 05:34:04;;;;;;;0.70;0.70;;;;;;;3.68;100.00;98964.00;5112486;28;20236;-64
2022/12/13 05:36:31;;;;;;;0.70;0.70;;;;;;;3.67;100.00;98972.47;5112556;28;20191;-64
2022/12/13 05:38:58;;;;;;;0.60;0.60;;;;;;;3.63;100.00;98970.81;5113281;28;20222;-64
2022/12/13 05:41:27;;;;;;;0.60;0.60;;;;;;;3.53;100.00;98964.13;5113257;28;20248;-64
2022/12/13 05:43:54;;;;;;;0.60;0.60;;;;;;;3.59;100.00;98971.69;5113325;28;20191;-64
2022/12/13 05:46:21;;;;;;;0.70;0.70;;;;;;;3.48;100.00;98965.88;5113057;28;20202;-64
2022/12/13 05:48:47;;;;;;;0.50;0.50;;;;;;;3.51;100.00;98981.06;5112736;28;20267;-64
2022/12/13 05:51:15;;;;;;;0.50;0.50;;;;;;;3.54;100.00;98991.16;5113000;28;20199;-64
2022/12/13 05:53:42;;;;;;;0.53;0.53;;;;;;;3.54;100.00;98993.69;5112963;28;20190;-64
2022/12/13 05:56:11;;;;;;;0.70;0.70;;;;;;;3.49;99.88;99003.84;5112699;28;20202;-64
2022/12/13 05:58:39;;;;;;;0.70;0.70;;;;;;;3.52;100.00;99008.09;5111864;28;20620;-64
2022/12/13 06:01:07;;;;;;;0.60;0.60;;;;;;;3.50;99.57;99013.16;5112668;28;20202;-64
2022/12/13 06:03:34;;;;;;;0.60;0.60;;;;;;;3.33;99.55;98996.41;5113204;28;20195;-64
2022/12/13 06:06:01;;;;;;;0.70;0.70;;;;;;;3.48;99.29;99021.63;5111792;28;20221;-64
2022/12/13 06:08:30;;;;;;;0.50;0.50;;;;;;;3.46;99.44;99028.38;5112343;28;20218;-64
2022/12/13 06:10:57;;;;;;;0.70;0.70;;;;;;;3.47;99.15;99027.53;5110858;28;20203;-64
2022/12/13 06:13:24;;;;;;;0.60;0.60;;;;;;;3.49;98.72;99025.84;5112795;28;20197;-64
2022/12/13 06:15:51;;;;;;;0.60;0.60;;;;;;;3.48;98.92;99026.69;5110582;28;20650;-64
2022/12/13 06:18:18;;;;;;;0.70;0.70;;;;;;;3.48;99.08;99027.53;5111514;28;20199;-64
2022/12/13 06:20:46;;;;;;;0.80;0.80;;;;;;;3.32;98.96;99009.94;5112085;28;20702;-64
2022/12/13 06:23:13;;;;;;;0.70;0.70;;;;;;;3.45;99.75;99027.56;5111216;28;20207;-64
2022/12/13 06:25:41;;;;;;;0.63;0.63;;;;;;;3.48;98.83;99036.81;5111529;28;20218;-63
2022/12/13 06:28:08;;;;;;;0.63;0.63;;;;;;;3.48;98.31;99041.91;5110785;28;20203;-64
2022/12/13 06:30:36;;;;;;;0.70;0.70;;;;;;;3.48;98.38;99041.91;5111788;28;20207;-64
2022/12/13 06:33:03;;;;;;;0.83;0.83;;;;;;;3.52;97.97;99041.03;5111085;28;20714;-64
2022/12/13 06:35:30;;;;;;;1.20;1.20;;;;;;;3.52;97.76;99043.56;5112774;28;20709;-64
2022/12/13 06:37:57;;;;;;;0.80;0.80;;;;;;;3.47;98.48;99052.88;5111748;28;20191;-64
2022/12/13 06:40:23;;;;;;;0.60;0.60;;;;;;;3.49;98.31;99046.13;5110854;28;20206;-64
2022/12/13 06:42:52;;;;;;;0.50;0.50;;;;;;;3.47;98.33;99045.28;5109649;28;20577;-64
2022/12/13 06:45:18;;;;;;;0.73;0.73;;;;;;;3.50;98.97;99052.84;5110938;28;20218;-64
2022/12/13 06:47:45;;;;;;;1.03;1.03;;;;;;;3.50;97.95;99060.44;5110969;27;20206;-64
2022/12/13 06:50:12;;;;;;;0.60;0.60;;;;;;;3.54;98.07;99064.66;5111804;28;20244;-64
2022/12/13 06:52:39;;;;;;;0.60;0.60;;;;;;;3.41;97.78;99045.31;5111875;28;20228;-64
2022/12/13 06:55:06;;;;;;;0.70;0.70;;;;;;;3.54;98.03;99064.66;5109722;28;20191;-64
2022/12/13 06:57:33;;;;;;;0.50;0.50;;;;;;;3.58;97.54;99063.78;5111282;28;20260;-64
2022/12/13 07:00:03;;;;;;;0.70;0.70;;;;;;;3.58;96.73;99059.56;5111024;28;20209;-63
2022/12/13 07:02:31;;;;;;;0.57;0.57;;;;;;;3.64;96.02;99069.66;5109592;28;20739;-64
2022/12/13 07:04:58;;;;;;;0.90;0.90;;;;;;;3.60;95.38;99067.13;5109647;28;20218;-64
2022/12/13 07:07:25;;;;;;;0.50;0.50;;;;;;;3.59;95.50;99056.16;5111852;28;20615;-64
2022/12/13 07:09:53;;;;;;;0.60;0.60;;;;;;;3.61;95.44;99069.66;5109499;28;20210;-63
2022/12/13 07:12:20;;;;;;;0.70;0.70;;;;;;;3.65;95.12;99070.50;5111106;28;20191;-63
2022/12/13 07:14:47;;;;;;;0.63;0.63;;;;;;;3.65;95.08;99062.88;5110905;28;20195;-63
2022/12/13 07:17:15;;;;;;;0.50;0.50;;;;;;;3.65;95.49;99070.50;5110942;28;20199;-63
2022/12/13 07:19:42;;;;;;;0.80;0.80;;;;;;;3.68;95.71;99070.47;5107659;28;20199;-63
2022/12/13 07:22:08;;;;;;;0.70;0.70;;;;;;;3.69;94.86;99077.19;5110890;28;20248;-64
2022/12/13 07:24:36;;;;;;;0.60;0.60;;;;;;;3.62;94.71;99070.47;5109896;28;20230;-64
2022/12/13 07:27:03;;;;;;;0.70;0.70;;;;;;;3.71;94.92;99085.66;5110932;28;20270;-63
2022/12/13 07:29:30;;;;;;;0.70;0.70;;;;;;;3.74;94.70;99093.22;5109990;28;20202;-62
2022/12/13 07:31:57;;;;;;;0.80;0.80;;;;;;;3.69;94.36;99087.34;5111449;28;20224;-62
2022/12/13 07:34:25;;;;;;;0.67;0.67;;;;;;;3.79;94.19;99091.47;5110449;28;20247;-63
2022/12/13 07:36:52;;;;;;;0.50;0.50;;;;;;;3.80;94.58;99093.19;5107531;28;20670;-64
2022/12/13 07:39:19;;;;;;;0.60;0.60;;;;;;;3.87;95.04;99096.50;5107700;28;20238;-63
2022/12/13 07:41:46;;;;;;;0.53;0.53;;;;;;;3.90;93.93;99097.31;5110590;28;20214;-63
2022/12/13 07:44:13;;;;;;;0.60;0.60;;;;;;;3.89;94.49;99095.63;5111272;28;20190;-65
2022/12/13 07:46:39;;;;;;;0.50;0.50;;;;;;;3.90;95.17;99096.47;5110142;28;20209;-64
2022/12/13 07:49:06;;;;;;;0.60;0.60;;;;;;;3.95;94.20;99110.78;5110271;28;20210;-65
2022/12/13 07:51:35;;;;;;;0.77;0.77;;;;;;;3.99;93.94;99102.31;5111332;28;20201;-64
2022/12/13 07:54:02;;;;;;;0.60;0.60;;;;;;;4.03;93.65;99111.56;5110155;28;20199;-64
2022/12/13 07:56:28;;;;;;;0.60;0.60;;;;;;;4.05;92.40;99111.53;5111125;28;20554;-64
2022/12/13 07:58:55;;;;;;;0.77;0.77;;;;;;;4.12;92.63;99118.25;5109259;28;20869;-64
2022/12/13 08:01:22;;;;;;;0.50;0.50;;;;;;;4.17;93.06;99122.41;5103343;28;20203;-64
2022/12/13 08:03:49;;;;;;;0.60;0.60;;;;;;;4.19;91.70;99135.09;5108657;28;20198;-62
2022/12/13 08:06:18;;;;;;;0.70;0.70;;;;;;;4.27;91.19;99127.41;5103038;28;20284;-64
2022/12/13 08:08:49;;;;;;;0.80;0.80;;;;;;;4.28;92.02;99122.34;5106438;28;20201;-64
2022/12/13 08:11:16;;;;;;;0.70;0.70;;;;;;;4.33;90.82;99122.31;5110150;28;20662;-64
2022/12/13 08:13:43;;;;;;;0.97;0.97;;;;;;;4.37;90.56;99134.09;5105692;28;20199;-64
2022/12/13 08:16:11;;;;;;;0.70;0.70;;;;;;;4.28;90.23;99117.25;5108124;28;20207;-64
2022/12/13 08:18:39;;;;;;;0.80;0.80;;;;;;;4.42;89.86;99132.34;5106649;28;20209;-64
2022/12/13 08:21:08;;;;;;;0.63;0.63;;;;;;;4.46;90.35;99134.03;5102940;28;20206;-64
2022/12/13 08:23:35;;;;;;;0.60;0.60;;;;;;;4.47;88.80;99140.75;5105268;28;20256;-64
2022/12/13 08:26:05;;;;;;;1.37;1.37;;;;;;;4.48;88.33;99147.53;5107506;28;20214;-65
2022/12/13 08:28:33;;;;;;;0.50;0.50;;;;;;;4.36;88.40;99114.66;5102377;28;20203;-64
2022/12/13 08:31:03;;;;;;;1.80;1.60;;;;;;;4.54;88.90;99142.38;5109912;28;20670;-64
2022/12/13 08:33:29;;;;;;;0.63;0.63;;;;;;;4.54;88.31;99147.47;5110724;28;20555;-64
2022/12/13 08:35:57;;;;;;;0.57;0.57;;;;;;;4.58;88.13;99144.88;5109871;28;20646;-64
2022/12/13 08:38:24;;;;;;;0.67;0.67;;;;;;;4.57;88.82;99138.13;5110648;28;20697;-65
2022/12/13 08:40:51;;;;;;;0.60;0.60;;;;;;;4.60;88.84;99142.31;5110586;28;20288;-65
2022/12/13 08:43:19;;;;;;;3.40;0.90;;;;;;;4.63;88.58;99152.44;5110521;28;20195;-65
2022/12/13 08:45:46;;;;;;;0.50;0.50;;;;;;;4.62;89.41;99143.16;5108456;28;20218;-64
2022/12/13 08:48:13;;;;;;;0.70;0.70;;;;;;;4.69;89.79;99144.75;5104824;28;20240;-65
2022/12/13 08:50:39;;;;;;;0.83;0.83;;;;;;;4.78;89.14;99145.50;5106086;28;20217;-65
2022/12/13 08:53:06;;;;;;;0.63;0.63;;;;;;;4.84;88.89;99129.38;5107995;28;20202;-65
2022/12/13 08:55:33;;;;;;;0.53;0.53;;;;;;;4.86;89.19;99120.00;5105521;28;20683;-65
2022/12/13 08:58:07;;;;;;;0.80;0.80;;;;;;;4.91;89.73;99108.09;5106110;28;20206;-65
2022/12/13 09:00:36;;;;;;;0.50;0.50;;;;;;;4.98;89.71;99119.88;5105378;28;20209;-65
2022/12/13 09:03:03;;;;;;;1.03;1.03;;;;;;;5.00;88.43;99120.72;5110076;28;20195;-64
2022/12/13 09:05:30;;;;;;;0.57;0.57;;;;;;;5.03;88.20;99130.81;5111136;28;20217;-64
2022/12/13 09:07:58;;;;;;;0.60;0.60;;;;;;;5.09;88.83;99135.81;5114161;28;20763;-64
2022/12/13 09:10:25;;;;;;;0.70;0.70;;;;;;;5.12;87.53;99129.88;5111832;28;20256;-63
2022/12/13 09:12:54;;;;;;;0.60;0.60;;;;;;;5.11;87.48;99125.63;5114070;28;20207;-64
2022/12/13 09:15:20;;;;;;;0.50;0.50;;;;;;;5.16;87.87;99123.88;5113169;28;20187;-63
2022/12/13 09:17:48;;;;;;;0.60;0.60;;;;;;;5.24;87.84;99122.91;5114140;28;20203;-64
2022/12/13 09:20:15;;;;;;;0.60;0.60;;;;;;;5.30;88.03;99107.59;5112933;28;20715;-63
2022/12/13 09:22:42;;;;;;;0.77;0.77;;;;;;;5.28;86.55;99103.38;5112996;28;20198;-64
2022/12/13 09:25:09;;;;;;;0.43;0.43;;;;;;;5.36;85.56;99100.75;5109063;27;20682;-63
2022/12/13 09:27:36;;;;;;;0.40;0.40;;;;;;;5.41;85.23;99093.88;5112770;28;20559;-63
2022/12/13 09:30:04;;;;;;;0.60;0.60;;;;;;;5.42;85.38;99100.66;5114028;28;20195;-63
2022/12/13 09:32:32;;;;;;;2.50;2.40;;;;;;;5.48;84.83;99085.31;5112922;28;20210;-63
2022/12/13 09:35:00;;;;;;;0.70;0.70;;;;;;;5.51;85.40;99090.34;5113691;28;20574;-63
2022/12/13 09:37:28;;;;;;;0.40;0.40;;;;;;;5.54;87.81;99082.69;5113227;28;20199;-63
2022/12/13 09:39:55;;;;;;;0.90;0.90;;;;;;;5.63;86.13;99090.16;5112209;28;20276;-64
2022/12/13 09:42:25;;;;;;;0.43;0.43;;;;;;;5.65;87.37;99088.44;5113574;28;20213;-63
2022/12/13 09:44:54;;;;;;;0.60;0.60;;;;;;;5.68;85.79;99078.22;5113386;28;20224;-64
2022/12/13 09:47:30;;;;;;;0.50;0.50;;;;;;;5.68;85.90;99078.22;5111654;28;20585;-64
2022/12/13 09:50:01;;;;;;;0.60;0.60;;;;;;;5.64;85.11;99072.34;5112751;28;20648;-64
2022/12/13 09:52:35;;;;;;;0.60;0.60;;;;;;;5.69;85.19;99084.97;5111481;28;20241;-64
2022/12/13 09:55:02;;;;;;;1.23;1.17;;;;;;;5.75;85.01;99077.28;5113444;28;20275;-64
2022/12/13 09:57:30;;;;;;;0.70;0.70;;;;;;;5.75;83.62;99074.72;5112220;28;20199;-63
2022/12/13 09:59:57;;;;;;;0.60;0.60;;;;;;;5.65;83.63;99060.47;5112438;28;20199;-64
2022/12/13 10:02:27;;;;;;;0.70;0.70;;;;;;;5.74;83.24;99071.34;5113280;28;20195;-64
2022/12/13 10:04:57;;;;;;;0.53;0.53;;;;;;;5.78;83.70;99069.59;5111612;27;20199;-64
2022/12/13 10:07:25;;;;;;;2.10;1.90;;;;;;;5.87;83.99;99064.38;5111720;28;20198;-64
2022/12/13 10:09:59;;;;;;;0.90;0.90;;;;;;;5.99;84.13;99069.25;5113021;28;20666;-64
2022/12/13 10:12:28;;;;;;;1.37;1.37;;;;;;;6.05;83.52;99066.59;5112930;28;20251;-64
2022/12/13 10:14:58;;;;;;;0.67;0.67;;;;;;;6.05;83.46;99069.16;5112697;28;20199;-63
2022/12/13 10:17:31;;;;;;;0.60;0.60;;;;;;;6.11;81.64;99069.03;5112047;28;20286;-64
2022/12/13 10:19:58;;;;;;;0.50;0.50;;;;;;;6.18;82.38;99068.06;5108291;28;20207;-64
2022/12/13 10:22:26;;;;;;;0.60;0.60;;;;;;;6.29;81.67;99068.72;5111608;28;20199;-64
2022/12/13 10:24:55;;;;;;;0.60;0.60;;;;;;;6.37;82.02;99071.13;5112650;28;20662;-63
2022/12/13 10:27:28;;;;;;;0.70;0.70;;;;;;;6.54;81.60;99070.81;5111660;28;20664;-64
2022/12/13 10:30:01;;;;;;;0.50;0.50;;;;;;;6.62;80.36;99067.25;5112674;28;20685;-63
2022/12/13 10:32:28;;;;;;;0.50;0.50;;;;;;;6.61;79.46;99070.66;5112525;28;20202;-64
2022/12/13 10:34:55;;;;;;;0.60;0.60;;;;;;;6.64;79.53;99070.59;5112732;28;20195;-64
2022/12/13 10:37:30;;;;;;;0.60;0.60;;;;;;;6.64;80.33;99064.66;5109359;28;20187;-64
2022/12/13 10:39:58;;;;;;;0.60;0.60;;;;;;;6.63;79.60;99060.44;5111600;28;20229;-64
2022/12/13 10:42:25;;;;;;;0.70;0.70;;;;;;;6.62;80.36;99046.03;5109094;28;21068;-64
2022/12/13 10:45:15;;;;;;;0.50;0.50;;;;;;;6.79;81.93;99054.16;5110707;28;20210;-63
2022/12/13 10:47:43;;;;;;;0.87;0.87;;;;;;;6.82;81.50;99052.38;5102368;28;20203;-64
2022/12/13 10:50:23;;;;;;;0.47;0.47;;;;;;;6.83;80.76;99048.13;5109964;28;20256;-63
2022/12/13 10:52:52;;;;;;;0.60;0.60;;;;;;;6.86;80.19;99045.53;5103304;28;20256;-64
2022/12/13 10:55:27;;;;;;;0.60;0.60;;;;;;;6.82;79.77;99041.34;5106829;28;20199;-64
2022/12/13 10:57:57;;;;;;;0.60;0.60;;;;;;;6.97;80.29;99046.16;5105205;28;20654;-64
2022/12/13 11:00:43;;;;;;;0.40;0.40;;;;;;;7.01;79.00;99044.38;5106842;28;20210;-64
2022/12/13 11:03:13;;;;;;;0.50;0.50;;;;;;;6.96;78.49;99043.63;5107592;28;20194;-64
2022/12/13 11:05:40;;;;;;;0.53;0.53;;;;;;;7.00;79.83;99038.44;5106653;28;20222;-64
2022/12/13 11:08:20;;;;;;;0.87;0.87;;;;;;;7.04;78.68;99049.41;5106866;28;20208;-64
2022/12/13 11:10:57;;;;;;;0.40;0.40;;;;;;;7.04;79.13;99047.69;5098086;28;20740;-64
2022/12/13 11:13:31;;;;;;;0.63;0.63;;;;;;;7.01;78.84;99035.00;5106777;28;20202;-64
2022/12/13 11:15:57;;;;;;;0.50;0.50;;;;;;;7.09;78.56;99032.28;5107212;28;20632;-64
2022/12/13 11:18:26;;;;;;;0.50;0.50;;;;;;;7.03;78.27;99028.19;5102770;28;20206;-64
2022/12/13 11:20:58;;;;;;;0.50;0.50;;;;;;;7.09;79.30;99022.94;5100743;28;20195;-64
2022/12/13 11:23:30;;;;;;;0.63;0.63;;;;;;;7.14;79.35;99021.13;5100445;28;20257;-64
2022/12/13 11:25:59;;;;;;;0.60;0.60;;;;;;;7.12;80.22;99022.88;5101323;28;20215;-64
2022/12/13 11:28:51;;;;;;;0.43;0.43;;;;;;;7.17;77.23;99028.69;5103530;28;20214;-64
2022/12/13 11:31:28;;;;;;;0.77;0.77;;;;;;;7.19;74.96;99029.50;5107033;28;20659;-63
2022/12/13 11:34:04;;;;;;;0.50;0.50;;;;;;;7.15;75.54;99015.16;5105955;28;20253;-64
2022/12/13 11:36:41;;;;;;;0.60;0.60;;;;;;;7.19;74.43;99019.31;5107496;27;20216;-64
2022/12/13 11:39:18;;;;;;;0.50;0.50;;;;;;;7.25;75.41;99019.19;5106901;28;20234;-63
2022/12/13 11:41:54;;;;;;;3.70;3.07;;;;;;;7.30;77.40;99027.53;5108243;28;20555;-64
2022/12/13 11:44:30;;;;;;;0.70;0.70;;;;;;;7.38;76.50;99020.56;5104783;28;20242;-64
2022/12/13 11:46:59;;;;;;;0.60;0.60;;;;;;;7.36;76.41;99027.44;5107811;28;20225;-64
2022/12/13 11:49:37;;;;;;;0.80;0.80;;;;;;;7.30;75.17;99017.34;5104463;28;20211;-64
2022/12/13 11:52:11;;;;;;;0.50;0.50;;;;;;;7.25;75.60;99024.28;5103180;28;20694;-64